Spanish Fort, AL (36577)

10:05 PM CDT on October 01, 2014 (GMT -0500)
Daphne Fire Station 4 | Change Station
CLOSE
Current Station
Personal Weather Station
Location: Daphne, AL
Elevation: 200 ft
Nearby Weather Stations

Elev 200 ft 30.66 °N, 87.85 °W | Updated 3 minutes ago

Clear
Clear
74.1 °F
Feels Like 72 °F
N
2.0
Wind Variable Wind from SE
Gusts 3.0 mph

Today
High -- | Low -- °F
--% Chance of Precip.
Yesterday
High -- | Low -- °F
Precip. -- in
6:45 AM 6:36 PM
First Quarter, 54% visible
Pressure 29.99 in
Visibility 10.0 miles
Clouds Clear
Heat Index 72 °F
Dew Point 72 °F
Humidity 94%
Rainfall 0.00 in
Snow Depth Not available.
UV 0 out of 12
Pollen 6.70 out of 12
Air Quality Not available.
Flu Activity Not available.
METAR KBFM 020253Z AUTO 15005KT 10SM CLR 25/23 A2999 RMK AO2 SLP155 T02500233 51016

More Conditions Fewer Conditions

Pressure 29.99 in
Visibility 10.0 miles
Clouds Clear
Heat Index 72 °F
Dew Point 72 °F
Humidity 94%
Rainfall 0.00 in
Snow Depth Not available.
UV 0 out of 12
Pollen 6.70 out of 12
Air Quality Not available.
Flu Activity Not available.
METAR KBFM 020253Z AUTO 15005KT 10SM CLR 25/23 A2999 RMK AO2 SLP155 T02500233 51016

More Conditions Fewer Conditions

10-Day Weather Forecast

Almanac

Astronomy

Oct. 01, 2014 Rise Set
Actual Time 6:45 AM CDT 6:36 PM CDT
Civil Twilight 6:21 AM CDT 7:00 PM CDT
Nautical Twilight 5:53 AM CDT 7:28 PM CDT
Astronomical Twilight 5:25 AM CDT 7:56 PM CDT
Moon 1:28 PM CDT (10/1) No Moon Set
Length of Visible Light 12h 39m
Length of Day
11h 51m
Tomorrow will be 1m 50s shorter.
First Quarter, 54% of the Moon is Illuminated
Today
First Quarter
Oct 8
Full
Oct 15
Last Quarter
Oct 23
New
Oct 30
First Quarter

Today's Extremes

State Highs State Lows

Community

WunderPhotos

Upload Photos

1,758,157 photos uploaded!

WunderBlogs® & News

Nearby

Snow Depth

Station Depth Elevation
No new snow has been reported.

Earthquake Activity

City Distance Mag. Time & Date
No recent earthquake activity has been reported nearby.
Minimum magnitude displayed is 2.5.

Coastal Water Temperatures

Place Temperature
Mobile State Docks, AL 81.0 °F
Coast Guard Sector Mobile, AL 79.0 °F

Nearby Weather Stations